Time;durP1;ratioP1;P1;durP2;ratioP2;P2;SDS_P1;SDS_P2;PMS_P1;PMS_P2;Temp;Humidity;BMP_temperature;BMP_pressure;BME280_temperature;BME280_humidity;BME280_pressure;Samples;Min_cycle;Max_cycle;Signal;HPM_P1;HPM_P2
2022/07/27 00:02:08;;;;;;;2.08;1.65;;;;;;;28.76;55.63;101000.24;1698152;83;21518;-49
2022/07/27 00:04:35;;;;;;;2.25;1.95;;;;;;;28.73;55.58;101004.05;1703439;84;21522;-50
2022/07/27 00:07:03;;;;;;;2.27;1.92;;;;;;;28.69;55.61;100997.77;1695954;83;21126;-48
2022/07/27 00:09:30;;;;;;;1.75;1.62;;;;;;;28.66;55.67;101001.61;1702236;84;21007;-48
2022/07/27 00:11:57;;;;;;;3.65;2.00;;;;;;;28.64;55.82;100998.72;1699953;84;21034;-47
2022/07/27 00:14:23;;;;;;;2.22;1.80;;;;;;;28.61;55.89;101003.85;1698383;83;21091;-48
2022/07/27 00:16:50;;;;;;;2.05;1.87;;;;;;;28.60;55.97;101003.52;1697976;83;21026;-47
2022/07/27 00:19:17;;;;;;;1.90;1.80;;;;;;;28.57;56.07;101006.47;1696682;84;21053;-50
2022/07/27 00:21:45;;;;;;;2.67;2.08;;;;;;;28.55;56.10;101008.41;1697478;84;21026;-47
2022/07/27 00:24:12;;;;;;;1.85;1.70;;;;;;;28.52;56.09;101000.65;1733220;81;21499;-48
2022/07/27 00:26:39;;;;;;;2.22;2.00;;;;;;;28.51;56.05;101007.00;1700583;84;21537;-50
2022/07/27 00:29:06;;;;;;;3.30;1.95;;;;;;;28.47;55.98;101013.63;1700861;84;21502;-50
2022/07/27 00:31:33;;;;;;;2.50;2.02;;;;;;;28.45;56.06;101007.58;1698155;84;21049;-48
2022/07/27 00:34:00;;;;;;;2.15;1.52;;;;;;;28.43;56.07;101012.23;1733400;81;21027;-49
2022/07/27 00:36:26;;;;;;;2.00;1.90;;;;;;;28.42;56.04;101007.84;1732678;82;20988;-47
2022/07/27 00:38:53;;;;;;;2.47;2.17;;;;;;;28.40;56.00;101007.14;1736429;81;21031;-50
2022/07/27 00:41:20;;;;;;;2.22;1.90;;;;;;;28.38;56.00;101005.61;1734358;81;21492;-49
2022/07/27 00:43:56;;;;;;;3.42;2.02;;;;;;;28.36;56.02;101005.73;1731955;81;21020;-48
2022/07/27 00:46:23;;;;;;;3.45;1.70;;;;;;;28.35;56.06;101004.55;1680925;83;21035;-48
2022/07/27 00:48:52;;;;;;;5.08;2.00;;;;;;;28.33;56.20;101004.69;1682206;83;21054;-53
2022/07/27 00:51:20;;;;;;;2.55;1.90;;;;;;;28.31;56.14;101002.66;1681638;83;21078;-50
2022/07/27 00:53:47;;;;;;;4.45;2.02;;;;;;;28.29;56.24;100999.27;1674267;85;21047;-49
2022/07/27 00:56:14;;;;;;;4.40;2.20;;;;;;;28.27;56.31;101002.58;1683504;83;21007;-49
2022/07/27 00:58:41;;;;;;;2.62;2.15;;;;;;;28.25;56.36;100997.86;1683305;83;21054;-49
2022/07/27 01:01:07;;;;;;;2.30;2.10;;;;;;;28.23;56.39;100997.16;1681070;83;21046;-48
2022/07/27 01:03:35;;;;;;;2.15;2.00;;;;;;;28.22;56.37;100999.47;1681325;83;21046;-47
2022/07/27 01:06:02;;;;;;;2.20;2.00;;;;;;;28.19;56.31;100999.77;1680586;83;21515;-47
2022/07/27 01:08:28;;;;;;;5.47;2.30;;;;;;;28.17;56.25;100995.87;1680792;83;21094;-49
2022/07/27 01:10:56;;;;;;;2.62;2.40;;;;;;;28.15;56.25;100994.34;1681311;83;21094;-48
2022/07/27 01:13:25;;;;;;;2.70;2.50;;;;;;;28.13;56.28;100996.31;1677543;83;21093;-49
2022/07/27 01:15:53;;;;;;;2.95;2.30;;;;;;;28.10;56.36;100990.73;1683424;83;21664;-49
2022/07/27 01:18:35;;;;;;;3.20;2.27;;;;;;;28.10;56.43;100991.22;1682351;83;21089;-50
2022/07/27 01:21:03;;;;;;;3.92;2.50;;;;;;;28.09;56.50;100988.17;1686327;83;21449;-47
2022/07/27 01:23:33;;;;;;;2.25;2.05;;;;;;;28.07;56.63;100988.81;1678442;83;21062;-49
2022/07/27 01:26:01;;;;;;;3.90;2.12;;;;;;;28.04;56.76;100989.11;1680365;83;21094;-47
2022/07/27 01:28:30;;;;;;;2.80;2.60;;;;;;;28.04;56.85;100994.45;1679406;84;20999;-49
2022/07/27 01:30:57;;;;;;;2.60;2.40;;;;;;;28.02;56.93;100988.41;1681641;83;21106;-49
2022/07/27 01:33:26;;;;;;;2.65;2.05;;;;;;;28.00;57.04;100987.22;1681255;83;21586;-47
2022/07/27 01:35:54;;;;;;;2.47;2.25;;;;;;;28.00;57.20;100990.38;1679948;83;21042;-51
2022/07/27 01:38:21;;;;;;;3.05;2.37;;;;;;;27.99;57.34;100985.98;1678661;83;21082;-47
2022/07/27 01:40:50;;;;;;;4.80;2.40;;;;;;;27.98;57.44;100981.64;1678107;83;21082;-48
2022/07/27 01:43:17;;;;;;;2.08;1.87;;;;;;;27.96;57.53;100980.94;1707828;82;20999;-47
2022/07/27 01:45:44;;;;;;;2.65;2.30;;;;;;;27.96;57.58;100988.96;1731362;81;21542;-48
2022/07/27 01:48:11;;;;;;;6.17;2.85;;;;;;;27.96;57.63;100984.95;1733014;81;21038;-47
2022/07/27 01:50:38;;;;;;;2.75;2.25;;;;;;;27.94;57.70;100986.88;1734705;81;21016;-49
2022/07/27 01:53:05;;;;;;;4.08;2.25;;;;;;;27.95;57.80;100984.55;1730472;82;21023;-47
2022/07/27 01:55:33;;;;;;;2.72;2.52;;;;;;;27.93;57.87;100985.18;1691571;84;21025;-47
2022/07/27 01:58:02;;;;;;;2.70;2.30;;;;;;;27.93;57.90;100987.85;1698143;84;21018;-50
2022/07/27 02:00:28;;;;;;;2.92;2.20;;;;;;;27.93;57.97;100991.38;1694741;83;21015;-48
2022/07/27 02:02:55;;;;;;;4.05;2.42;;;;;;;27.92;58.08;100987.52;1733632;81;21539;-52
2022/07/27 02:05:23;;;;;;;5.87;2.80;;;;;;;27.91;58.15;100985.81;1731179;81;20991;-50
2022/07/27 02:07:52;;;;;;;2.58;2.27;;;;;;;27.91;58.21;100985.81;1731570;81;21016;-47
2022/07/27 02:10:18;;;;;;;5.72;2.50;;;;;;;27.90;58.29;100984.13;1731335;81;21062;-48
2022/07/27 02:12:45;;;;;;;2.98;2.60;;;;;;;27.90;58.29;100986.80;1725498;82;21035;-49
2022/07/27 02:15:14;;;;;;;2.95;2.35;;;;;;;27.89;58.33;100986.44;1730869;81;21000;-47
2022/07/27 02:17:42;;;;;;;3.67;2.50;;;;;;;27.88;58.36;100988.26;1731876;81;21069;-47
2022/07/27 02:20:10;;;;;;;3.50;2.75;;;;;;;27.88;58.43;100990.11;1731693;81;21018;-49
2022/07/27 02:22:38;;;;;;;2.62;2.40;;;;;;;27.87;58.42;100992.42;1731412;81;21019;-48
2022/07/27 02:25:07;;;;;;;3.25;2.60;;;;;;;27.86;58.57;100990.75;1732323;81;21026;-48
2022/07/27 02:27:34;;;;;;;3.30;2.80;;;;;;;27.85;58.64;100988.55;1733516;81;21081;-49
2022/07/27 02:30:01;;;;;;;3.70;2.95;;;;;;;27.82;58.66;100984.80;1701073;84;21498;-47
2022/07/27 02:32:29;;;;;;;3.42;2.25;;;;;;;27.83;58.71;100988.33;1734261;81;21031;-48
2022/07/27 02:34:56;;;;;;;4.30;2.67;;;;;;;27.83;58.74;100989.67;1731506;81;21590;-49
2022/07/27 02:37:23;;;;;;;2.80;2.60;;;;;;;27.82;58.81;100986.66;1733507;81;20992;-50
2022/07/27 02:39:50;;;;;;;3.52;2.65;;;;;;;27.81;58.87;100987.14;1730250;82;20991;-48
2022/07/27 02:42:17;;;;;;;3.17;2.87;;;;;;;27.82;58.98;100982.64;1735921;81;21521;-51
2022/07/27 02:44:44;;;;;;;2.83;2.62;;;;;;;27.81;59.01;100984.47;1718226;81;21038;-48
2022/07/27 02:47:10;;;;;;;2.90;2.60;;;;;;;27.81;59.04;100976.44;1696873;84;21074;-50
2022/07/27 02:49:37;;;;;;;2.90;2.70;;;;;;;27.81;59.00;100986.28;1696557;84;21034;-47
2022/07/27 02:52:04;;;;;;;2.80;2.40;;;;;;;27.81;59.01;100979.60;1702879;84;21022;-48
2022/07/27 02:54:33;;;;;;;3.58;2.60;;;;;;;27.80;59.11;100979.27;1733602;81;20998;-47
2022/07/27 02:57:01;;;;;;;3.45;3.12;;;;;;;27.79;59.14;100974.88;1731447;81;21491;-49
2022/07/27 02:59:28;;;;;;;4.90;2.98;;;;;;;27.79;59.20;100978.89;1731565;81;21054;-49
2022/07/27 03:01:55;;;;;;;3.12;2.90;;;;;;;27.79;59.19;100976.22;1731654;81;21531;-47
2022/07/27 03:04:22;;;;;;;2.60;2.40;;;;;;;27.79;59.25;100981.56;1731714;81;21075;-47
2022/07/27 03:06:49;;;;;;;3.90;2.72;;;;;;;27.79;59.30;100979.75;1732457;81;21023;-49
2022/07/27 03:09:16;;;;;;;3.10;2.85;;;;;;;27.80;59.33;100980.60;1734180;81;21074;-47
2022/07/27 03:11:44;;;;;;;3.58;2.60;;;;;;;27.80;59.40;100976.59;1734563;81;20975;-50
2022/07/27 03:14:11;;;;;;;2.90;2.60;;;;;;;27.80;59.44;100978.75;1697373;84;21047;-52
2022/07/27 03:16:38;;;;;;;2.90;2.65;;;;;;;27.80;59.56;100981.42;1700779;84;21061;-50
2022/07/27 03:19:05;;;;;;;2.65;2.45;;;;;;;27.81;59.65;100979.12;1694243;84;20994;-52
2022/07/27 03:21:32;;;;;;;2.80;2.60;;;;;;;27.82;59.74;100983.98;1697615;82;21519;-50
2022/07/27 03:23:59;;;;;;;4.58;2.67;;;;;;;27.83;59.78;100980.31;1697272;83;21082;-47
2022/07/27 03:26:26;;;;;;;4.08;2.40;;;;;;;27.84;59.90;100979.34;1700883;84;21030;-47
2022/07/27 03:28:52;;;;;;;3.50;2.37;;;;;;;27.85;60.04;100974.33;1698388;84;21093;-47
2022/07/27 03:31:19;;;;;;;5.30;2.80;;;;;;;27.87;60.07;100977.22;1698999;83;21041;-49
2022/07/27 03:33:45;;;;;;;5.08;2.45;;;;;;;27.90;60.12;100976.11;1735466;82;21002;-47
2022/07/27 03:36:13;;;;;;;4.72;2.42;;;;;;;27.92;60.15;100979.00;1736185;81;21027;-48
2022/07/27 03:38:40;;;;;;;2.72;2.47;;;;;;;27.96;60.31;100980.94;1736392;81;21050;-48
2022/07/27 03:41:07;;;;;;;2.40;2.20;;;;;;;28.05;60.63;100984.09;1733691;81;21063;-47
2022/07/27 03:43:35;;;;;;;2.50;2.30;;;;;;;28.16;60.71;100987.98;1733191;81;21023;-48
2022/07/27 03:46:02;;;;;;;2.87;2.17;;;;;;;28.29;60.53;100991.24;1733283;81;20991;-48
2022/07/27 03:48:29;;;;;;;2.52;1.82;;;;;;;28.42;60.16;100989.11;1732689;81;21552;-48
2022/07/27 03:50:56;;;;;;;3.35;2.27;;;;;;;28.55;59.68;100995.02;1733588;81;21022;-49
2022/07/27 03:53:22;;;;;;;2.42;2.20;;;;;;;28.65;59.40;100989.19;1735545;81;21066;-48
2022/07/27 03:55:50;;;;;;;2.00;1.77;;;;;;;28.78;59.23;100995.59;1736445;81;21046;-48
2022/07/27 03:58:17;;;;;;;1.85;1.50;;;;;;;28.95;59.19;100997.02;1699392;84;21078;-52
2022/07/27 04:00:44;;;;;;;2.87;2.12;;;;;;;29.24;59.37;100999.66;1698346;83;21070;-48
2022/07/27 04:03:10;;;;;;;2.00;1.80;;;;;;;29.73;58.37;100997.11;1699794;83;21038;-52
2022/07/27 04:05:37;;;;;;;2.10;1.90;;;;;;;30.27;56.25;101003.73;1700550;83;21526;-51
2022/07/27 04:08:05;;;;;;;1.67;1.57;;;;;;;30.60;54.80;100999.52;1701069;83;21018;-48
2022/07/27 04:10:33;;;;;;;1.80;1.70;;;;;;;30.75;53.98;100999.28;1699502;84;21015;-49
2022/07/27 04:13:00;;;;;;;1.67;1.57;;;;;;;30.77;53.69;101001.83;1697144;83;21463;-47
2022/07/27 04:15:28;;;;;;;2.00;1.80;;;;;;;30.73;53.57;101004.48;1692588;83;21069;-51
2022/07/27 04:17:55;;;;;;;1.72;1.62;;;;;;;30.66;53.62;101004.76;1731943;82;21539;-48
2022/07/27 04:20:22;;;;;;;1.80;1.67;;;;;;;30.58;53.82;101003.35;1736418;81;21042;-51
2022/07/27 04:22:48;;;;;;;1.75;1.62;;;;;;;30.48;54.11;101008.30;1698056;84;21039;-48
2022/07/27 04:25:17;;;;;;;1.95;1.80;;;;;;;30.38;54.49;101004.86;1697827;83;21561;-52
2022/07/27 04:27:44;;;;;;;2.10;1.90;;;;;;;30.29;54.89;101007.60;1698035;83;21045;-49
2022/07/27 04:30:12;;;;;;;1.95;1.67;;;;;;;30.20;55.46;101002.66;1697113;83;21073;-48
2022/07/27 04:32:39;;;;;;;3.60;1.82;;;;;;;30.13;55.85;101008.80;1698073;83;21038;-49
2022/07/27 04:35:07;;;;;;;3.75;2.35;;;;;;;30.06;56.20;101012.58;1699415;83;21061;-48
2022/07/27 04:37:34;;;;;;;2.05;1.77;;;;;;;30.01;56.51;101014.01;1736664;81;21451;-50
2022/07/27 04:40:01;;;;;;;3.08;1.90;;;;;;;29.96;56.84;101015.83;1735885;81;21022;-48
2022/07/27 04:42:28;;;;;;;2.12;1.67;;;;;;;29.94;57.11;101016.48;1732981;81;21035;-49
2022/07/27 04:44:56;;;;;;;1.92;1.57;;;;;;;29.91;57.35;101014.08;1699602;84;21495;-48
2022/07/27 04:47:23;;;;;;;2.00;1.85;;;;;;;29.90;57.52;101020.45;1708178;83;21046;-49
2022/07/27 04:49:49;;;;;;;4.35;2.08;;;;;;;29.88;57.72;101011.72;1700154;84;21060;-48
2022/07/27 04:52:16;;;;;;;2.22;1.75;;;;;;;29.90;57.80;101024.48;1698082;84;21030;-50
2022/07/27 04:54:43;;;;;;;2.70;2.22;;;;;;;29.89;57.90;101021.44;1699691;83;20983;-50
2022/07/27 04:57:09;;;;;;;2.95;2.25;;;;;;;29.90;58.01;101027.17;1734753;81;21027;-48
2022/07/27 04:59:36;;;;;;;4.15;2.02;;;;;;;29.91;58.01;101024.81;1732969;81;21488;-49
2022/07/27 05:02:03;;;;;;;1.95;1.85;;;;;;;29.91;57.96;101027.50;1733786;81;20959;-49
2022/07/27 05:04:30;;;;;;;2.22;2.00;;;;;;;29.94;57.97;101032.58;1733497;81;21527;-47
2022/07/27 05:06:59;;;;;;;3.77;1.90;;;;;;;29.95;57.94;101030.22;1733570;81;20991;-50
2022/07/27 05:09:25;;;;;;;1.95;1.62;;;;;;;29.81;58.41;101040.13;1735227;81;21047;-48
2022/07/27 05:11:52;;;;;;;2.35;1.57;;;;;;;29.73;58.56;101036.01;1700619;84;21049;-48
2022/07/27 05:14:20;;;;;;;2.00;1.85;;;;;;;29.96;57.97;101037.30;1732011;82;21613;-47
2022/07/27 05:16:47;;;;;;;2.02;1.62;;;;;;;30.04;57.77;101042.75;1723594;81;21043;-47
2022/07/27 05:19:14;;;;;;;2.12;1.92;;;;;;;30.08;57.58;101042.79;1700410;84;21042;-49
2022/07/27 05:21:40;;;;;;;1.90;1.80;;;;;;;30.13;57.53;101045.03;1700864;84;21038;-51
2022/07/27 05:24:08;;;;;;;2.22;1.77;;;;;;;30.17;57.34;101045.89;1704456;84;21025;-47
2022/07/27 05:26:36;;;;;;;1.90;1.70;;;;;;;30.26;57.13;101047.67;1699031;84;21034;-47
2022/07/27 05:29:03;;;;;;;1.92;1.82;;;;;;;30.38;57.07;101052.34;1734518;81;21487;-49
2022/07/27 05:31:31;;;;;;;2.15;1.85;;;;;;;30.50;56.95;101050.61;1735321;80;21007;-48
2022/07/27 05:33:58;;;;;;;1.70;1.60;;;;;;;30.69;56.63;101056.31;1735549;81;21031;-49
2022/07/27 05:36:25;;;;;;;2.20;2.00;;;;;;;30.89;56.13;101054.34;1731493;81;21015;-49
2022/07/27 05:38:52;;;;;;;1.65;1.52;;;;;;;31.12;55.68;101060.37;1731604;81;21019;-55
2022/07/27 05:41:24;;;;;;;2.30;1.55;;;;;;;31.37;55.08;101066.75;1697406;84;21023;-48
2022/07/27 05:43:56;;;;;;;1.80;1.70;;;;;;;31.64;54.20;101061.70;1697816;84;21062;-52
2022/07/27 05:46:22;;;;;;;1.95;1.82;;;;;;;31.91;53.25;101065.03;1731743;81;20990;-47
2022/07/27 05:48:49;;;;;;;2.65;1.52;;;;;;;32.16;52.38;101059.73;1732260;81;21059;-50
2022/07/27 05:51:16;;;;;;;3.10;1.70;;;;;;;32.35;51.93;101056.75;1700801;84;21526;-51
2022/07/27 05:53:43;;;;;;;2.00;1.80;;;;;;;32.53;51.33;101069.59;1734915;81;21058;-50
2022/07/27 05:56:10;;;;;;;3.05;1.67;;;;;;;32.66;50.80;101066.76;1733155;81;21104;-51
2022/07/27 05:58:38;;;;;;;1.87;1.70;;;;;;;32.80;50.49;101070.63;1733151;81;21007;-50
2022/07/27 06:01:05;;;;;;;1.87;1.50;;;;;;;32.94;50.07;101062.34;1733367;82;21038;-49
2022/07/27 06:03:33;;;;;;;2.37;2.08;;;;;;;33.07;49.83;101059.52;1735605;81;21078;-50
2022/07/27 06:08:47;;;;;;;1.95;1.85;;;;;;;33.45;48.77;101068.68;1700487;84;21046;-48
2022/07/27 06:11:15;;;;;;;1.92;1.70;;;;;;;33.72;47.85;101065.59;1734060;81;21010;-50
2022/07/27 06:13:43;;;;;;;1.90;1.50;;;;;;;33.95;47.33;101062.95;1697764;84;21566;-49
2022/07/27 06:16:11;;;;;;;2.62;1.77;;;;;;;34.14;47.00;101059.84;1698051;83;21014;-48
2022/07/27 06:18:38;;;;;;;2.62;1.87;;;;;;;34.29;46.59;101061.59;1697372;84;21061;-50
2022/07/27 06:21:05;;;;;;;3.67;1.80;;;;;;;34.36;46.40;101063.06;1697786;84;21054;-50
2022/07/27 06:23:33;;;;;;;1.75;1.65;;;;;;;34.34;46.10;101060.55;1697660;82;21042;-49
2022/07/27 06:26:00;;;;;;;2.12;1.52;;;;;;;34.29;46.06;101055.37;1741149;81;21016;-48
2022/07/27 06:28:28;;;;;;;2.92;2.00;;;;;;;34.21;46.20;101063.53;1735041;81;21847;-49
2022/07/27 06:30:55;;;;;;;1.92;1.77;;;;;;;34.13;46.25;101063.55;1733588;81;21035;-49
2022/07/27 06:33:28;;;;;;;2.67;1.82;;;;;;;34.04;46.19;101068.69;1732497;81;21483;-48
2022/07/27 06:35:56;;;;;;;2.27;1.90;;;;;;;33.95;46.32;101065.65;1703564;84;21053;-51
2022/07/27 06:38:24;;;;;;;1.80;1.70;;;;;;;33.84;46.76;101073.63;1698081;84;21027;-50
2022/07/27 06:40:53;;;;;;;2.40;2.00;;;;;;;33.75;46.81;101072.50;1701516;84;21030;-49
2022/07/27 06:43:24;;;;;;;;;;;;;;;33.68;47.12;101078.25;1703032;84;21050;-49
2022/07/27 06:45:52;;;;;;;2.77;1.80;;;;;;;33.59;47.49;101082.33;1725340;81;20096;-51
2022/07/27 06:48:22;;;;;;;3.25;1.90;;;;;;;33.54;47.70;101078.48;1731584;81;21002;-48
2022/07/27 06:50:50;;;;;;;1.82;1.72;;;;;;;33.49;47.84;101080.87;1733149;81;21587;-48
2022/07/27 06:53:17;;;;;;;2.67;1.75;;;;;;;33.46;47.90;101082.02;1735038;81;21066;-52
2022/07/27 06:55:44;;;;;;;2.20;1.85;;;;;;;33.43;47.84;101082.34;1730499;82;21535;-49
2022/07/27 06:58:11;;;;;;;2.62;1.50;;;;;;;33.40;47.97;101077.31;1700416;84;21066;-48
2022/07/27 07:00:39;;;;;;;1.75;1.65;;;;;;;33.37;47.94;101079.00;1700794;84;21046;-50
2022/07/27 07:03:06;;;;;;;4.72;1.85;;;;;;;33.34;48.24;101082.05;1698239;84;21026;-49
2022/07/27 07:05:42;;;;;;;2.35;1.70;;;;;;;33.34;48.35;101082.55;1697682;84;21006;-49
2022/07/27 07:08:10;;;;;;;4.60;1.60;;;;;;;33.35;48.48;101081.52;1705626;84;21082;-50
2022/07/27 07:10:42;;;;;;;2.10;1.87;;;;;;;33.37;48.49;101081.70;1682182;84;21115;-48
2022/07/27 07:13:10;;;;;;;2.62;2.02;;;;;;;33.42;48.37;101082.03;1598312;89;21070;-49
2022/07/27 07:15:39;;;;;;;5.78;1.65;;;;;;;33.55;48.40;101085.05;1626483;88;21601;-50
2022/07/27 07:18:07;;;;;;;2.50;1.65;;;;;;;33.76;47.92;101089.05;1645279;87;21046;-50
2022/07/27 07:20:35;;;;;;;3.70;1.62;;;;;;;34.00;47.28;101088.45;1626685;88;21128;-54
2022/07/27 07:23:03;;;;;;;3.22;1.80;;;;;;;34.27;46.51;101087.13;1633317;86;21109;-51
2022/07/27 07:25:32;;;;;;;1.47;1.37;;;;;;;34.53;45.72;101086.30;1633204;87;21590;-48
2022/07/27 07:27:59;;;;;;;1.80;1.70;;;;;;;34.70;45.26;101090.56;1635005;87;21030;-51
2022/07/27 07:30:26;;;;;;;2.62;1.90;;;;;;;34.79;44.93;101080.00;1631204;87;21085;-48
2022/07/27 07:32:54;;;;;;;4.00;1.80;;;;;;;34.82;44.63;101078.30;1631989;87;21541;-50
2022/07/27 07:35:21;;;;;;;2.02;1.82;;;;;;;34.82;44.42;101083.70;1634201;87;21518;-52
2022/07/27 07:37:48;;;;;;;1.85;1.67;;;;;;;34.78;44.38;101082.39;1634617;87;21098;-49
2022/07/27 07:40:15;;;;;;;2.10;1.67;;;;;;;34.71;44.49;101089.53;1635029;87;21558;-51
2022/07/27 07:42:56;;;;;;;4.08;1.98;;;;;;;34.63;44.78;101089.59;1634628;87;21078;-51
2022/07/27 07:45:24;;;;;;;1.92;1.80;;;;;;;34.57;45.11;101094.37;1637658;86;21585;-49
2022/07/27 07:47:50;;;;;;;3.37;1.77;;;;;;;34.50;45.20;101084.47;1633104;87;21109;-49
2022/07/27 07:50:17;;;;;;;2.08;1.90;;;;;;;34.43;45.28;101089.72;1634019;87;21113;-51
2022/07/27 07:52:48;;;;;;;2.95;2.00;;;;;;;34.36;45.30;101091.44;1633471;87;21142;-49
2022/07/27 07:55:15;;;;;;;4.08;1.90;;;;;;;34.29;45.30;101093.19;1653002;86;21037;-51
2022/07/27 07:57:42;;;;;;;3.15;1.85;;;;;;;34.23;45.45;101089.85;1598071;87;21561;-49
2022/07/27 08:00:10;;;;;;;1.82;1.67;;;;;;;34.17;45.47;101097.31;1635524;87;21605;-49
2022/07/27 08:02:50;;;;;;;;;;;;;;;34.11;45.65;101098.00;1635226;87;21011;-49
2022/07/27 08:05:19;;;;;;;1.95;1.85;;;;;;;34.06;45.78;101090.95;1619224;87;20223;-50
2022/07/27 08:07:46;;;;;;;1.80;1.70;;;;;;;34.01;45.83;101100.08;1640943;86;21062;-47
2022/07/27 08:10:16;;;;;;;2.15;1.67;;;;;;;33.98;45.99;101095.02;1643297;86;21686;-48
2022/07/27 08:12:45;;;;;;;3.22;2.08;;;;;;;33.95;46.09;101095.34;1634114;86;21515;-51
2022/07/27 08:15:14;;;;;;;2.27;1.77;;;;;;;33.94;46.09;101098.58;1656288;82;21055;-51
2022/07/27 08:17:42;;;;;;;2.02;1.70;;;;;;;33.95;46.00;101099.40;1726049;82;20991;-51
2022/07/27 08:20:11;;;;;;;5.12;2.35;;;;;;;33.94;45.88;101093.69;1728185;82;21097;-48
2022/07/27 08:22:37;;;;;;;2.08;1.87;;;;;;;33.92;46.04;101094.37;1729217;81;20955;-52
2022/07/27 08:25:06;;;;;;;2.85;1.80;;;;;;;33.91;46.13;101094.02;1738007;81;21429;-49
2022/07/27 08:27:35;;;;;;;2.60;1.90;;;;;;;33.90;46.25;101095.05;1731613;81;21050;-50
2022/07/27 08:30:04;;;;;;;1.77;1.62;;;;;;;33.89;46.46;101104.16;1731233;81;21051;-52
2022/07/27 08:32:31;;;;;;;1.70;1.60;;;;;;;33.88;46.47;101102.48;1731709;81;21487;-50
2022/07/27 08:34:58;;;;;;;2.05;1.85;;;;;;;33.87;46.44;101111.09;1731596;81;20991;-50
2022/07/27 08:37:26;;;;;;;5.08;1.85;;;;;;;33.86;46.41;101108.04;1734019;81;21022;-52
2022/07/27 08:39:52;;;;;;;3.12;2.02;;;;;;;33.87;46.26;101108.89;1700813;84;22043;-49
2022/07/27 08:42:19;;;;;;;2.00;1.90;;;;;;;33.88;46.35;101111.94;1700060;84;21925;-48
2022/07/27 08:44:46;;;;;;;2.60;2.00;;;;;;;33.87;46.54;101109.73;1697214;84;21041;-48
2022/07/27 08:47:13;;;;;;;2.17;1.98;;;;;;;33.88;46.26;101116.80;1730386;81;21503;-48
2022/07/27 08:49:40;;;;;;;3.12;1.65;;;;;;;33.92;46.01;101115.97;1725207;81;20999;-47
2022/07/27 08:52:09;;;;;;;2.55;2.20;;;;;;;33.92;45.96;101118.66;1731602;81;21054;-50
2022/07/27 08:54:39;;;;;;;2.50;2.30;;;;;;;33.71;46.56;101117.05;1733411;81;21558;-50
2022/07/27 08:57:09;;;;;;;2.98;2.00;;;;;;;33.65;46.76;101115.37;1695761;84;21475;-48
2022/07/27 08:59:36;;;;;;;4.40;2.05;;;;;;;33.65;46.91;101118.59;1695446;84;21023;-46
2022/07/27 09:02:09;;;;;;;1.87;1.70;;;;;;;33.64;47.09;101115.05;1686811;84;21059;-48
2022/07/27 09:04:39;;;;;;;6.33;1.90;;;;;;;33.64;47.18;101117.75;1646715;85;21062;-47
2022/07/27 09:07:06;;;;;;;4.45;1.95;;;;;;;33.67;47.18;101119.77;1646817;86;21086;-49
2022/07/27 09:09:44;;;;;;;1.70;1.60;;;;;;;33.90;46.55;101122.05;1642798;86;21613;-50
2022/07/27 09:12:11;;;;;;;2.02;1.90;;;;;;;33.81;46.78;101114.98;1643863;85;21554;-49
2022/07/27 09:14:40;;;;;;;2.50;1.80;;;;;;;33.94;46.55;101124.23;1646413;86;21110;-50
2022/07/27 09:17:23;;;;;;;2.80;1.90;;;;;;;33.92;46.68;101122.72;1648625;86;21050;-47
2022/07/27 09:20:00;;;;;;;2.58;2.17;;;;;;;34.01;46.28;101124.38;1608034;88;21127;-47
2022/07/27 09:22:54;;;;;;;2.70;2.12;;;;;;;34.03;45.97;101116.94;1615859;88;21024;-48
2022/07/27 09:25:29;;;;;;;2.27;2.05;;;;;;;34.04;45.71;101117.29;1615711;88;21099;-50
2022/07/27 09:27:57;;;;;;;3.52;1.80;;;;;;;34.05;45.71;101120.30;1616048;88;21108;-47
2022/07/27 09:30:26;;;;;;;2.02;1.90;;;;;;;34.04;45.92;101113.23;1615747;88;21035;-48
2022/07/27 09:33:03;;;;;;;3.10;2.00;;;;;;;34.04;46.00;101119.49;1615780;88;21044;-49
2022/07/27 09:35:35;;;;;;;3.10;1.92;;;;;;;34.04;45.92;101128.09;1614683;87;21617;-47
2022/07/27 09:38:22;;;;;;;3.20;2.30;;;;;;;34.04;45.88;101124.89;1603775;87;21097;-47
2022/07/27 09:41:03;;;;;;;2.75;2.08;;;;;;;34.03;46.08;101125.05;1614547;87;21033;-49
2022/07/27 09:43:30;;;;;;;2.20;1.87;;;;;;;34.04;46.04;101128.09;1614668;87;21152;-47
2022/07/27 09:48:34;;;;;;;4.00;2.05;;;;;;;34.00;45.54;101134.36;1557269;92;21107;-50
2022/07/27 09:51:06;;;;;;;2.40;2.20;;;;;;;34.04;45.42;101133.49;1549629;92;21152;-48
2022/07/27 09:53:34;;;;;;;4.80;1.90;;;;;;;34.04;45.49;101127.59;1544828;92;21186;-51
2022/07/27 09:56:04;;;;;;;4.70;2.40;;;;;;;34.09;45.45;101132.44;1517221;94;21068;-48
2022/07/27 09:58:46;;;;;;;;;;;;;;;34.11;45.25;101130.41;1502064;95;21140;-50
2022/07/27 10:01:20;;;;;;;;;;;;;;;33.95;45.68;101131.30;1515803;93;20136;-50
2022/07/27 10:03:49;;;;;;;5.20;2.37;;;;;;;34.01;45.54;101129.78;1533005;93;20409;-49
2022/07/27 10:06:16;;;;;;;2.17;1.98;;;;;;;34.15;45.34;101134.47;1538434;93;21000;-48
2022/07/27 10:08:46;;;;;;;3.08;2.22;;;;;;;34.02;45.80;101143.13;1523859;93;21590;-50
2022/07/27 10:11:13;;;;;;;3.40;2.35;;;;;;;33.93;46.08;101143.28;1537235;93;21546;-50
2022/07/27 10:13:40;;;;;;;2.60;2.40;;;;;;;33.92;46.10;101144.31;1536841;93;21024;-48
2022/07/27 10:16:19;;;;;;;2.52;2.08;;;;;;;34.11;45.52;101138.00;1557404;89;21029;-51
2022/07/27 10:19:06;;;;;;;2.27;2.08;;;;;;;34.15;45.16;101138.52;1591097;89;21498;-49
2022/07/27 10:21:35;;;;;;;3.83;2.08;;;;;;;34.12;45.16;101137.50;1592585;88;21097;-51
2022/07/27 10:24:09;;;;;;;4.37;2.40;;;;;;;34.11;45.28;101135.80;1572132;89;21062;-49
2022/07/27 10:26:40;;;;;;;3.17;2.30;;;;;;;34.05;45.34;101139.21;1577176;90;21081;-53
2022/07/27 10:29:19;;;;;;;2.52;2.30;;;;;;;34.04;45.21;101145.64;1522289;93;21187;-50
2022/07/27 10:31:58;;;;;;;3.10;2.40;;;;;;;33.98;45.60;101143.12;1523258;94;21173;-50
2022/07/27 10:34:37;;;;;;;3.45;2.60;;;;;;;33.98;45.64;101146.31;1517432;94;21072;-51
2022/07/27 10:37:16;;;;;;;4.12;2.65;;;;;;;33.96;45.43;101137.05;1518528;94;21049;-50
2022/07/27 10:39:45;;;;;;;2.65;2.20;;;;;;;33.93;45.34;101143.28;1563184;89;21048;-51
2022/07/27 10:42:29;;;;;;;3.22;2.45;;;;;;;33.93;45.59;101140.59;1568628;91;21094;-50
2022/07/27 10:45:06;;;;;;;5.03;2.47;;;;;;;33.93;45.92;101141.94;1591766;85;21028;-52
2022/07/27 10:47:37;;;;;;;4.87;2.83;;;;;;;33.95;45.84;101143.95;1632997;86;21534;-51
2022/07/27 10:50:25;;;;;;;3.17;2.40;;;;;;;33.94;45.72;101144.98;1634579;85;21070;-55
2022/07/27 10:53:03;;;;;;;4.45;2.50;;;;;;;33.94;45.70;101142.28;1639049;86;21545;-54
2022/07/27 10:55:36;;;;;;;2.60;2.40;;;;;;;33.91;45.64;101142.12;1615537;87;21085;-53
2022/07/27 10:58:18;;;;;;;4.33;2.50;;;;;;;33.86;45.84;101142.31;1611259;87;21086;-49
2022/07/27 11:00:53;;;;;;;2.58;2.33;;;;;;;33.86;46.07;101143.66;1614674;87;21065;-52
2022/07/27 11:03:33;;;;;;;2.60;2.40;;;;;;;33.84;46.31;101133.55;1619605;87;21536;-54
2022/07/27 11:06:11;;;;;;;2.80;2.58;;;;;;;33.82;46.26;101131.00;1616577;87;21085;-52
2022/07/27 11:08:42;;;;;;;3.62;2.60;;;;;;;33.81;46.23;101133.88;1614973;87;21061;-50
2022/07/27 11:11:17;;;;;;;2.92;2.72;;;;;;;33.80;45.87;101133.03;1618365;86;21586;-52
2022/07/27 11:13:45;;;;;;;5.80;2.87;;;;;;;33.83;45.88;101130.50;1610992;87;21110;-52
2022/07/27 11:16:15;;;;;;;2.90;2.70;;;;;;;33.67;46.28;101130.06;1614504;86;21538;-51
2022/07/27 11:18:43;;;;;;;3.15;2.85;;;;;;;33.70;46.29;101122.95;1615843;86;21055;-52
2022/07/27 11:21:33;;;;;;;3.17;2.83;;;;;;;33.78;46.28;101126.16;1614498;87;21101;-51
2022/07/27 11:24:12;;;;;;;3.70;2.72;;;;;;;33.80;46.19;101124.12;1517484;93;21585;-50
2022/07/27 11:26:43;;;;;;;2.52;2.33;;;;;;;33.78;45.87;101123.45;1509297;93;21215;-51
2022/07/27 11:29:11;;;;;;;4.72;3.00;;;;;;;33.76;46.00;101126.83;1463708;96;21591;-49
2022/07/27 11:31:40;;;;;;;5.08;2.83;;;;;;;33.71;46.04;101127.84;1496512;91;21514;-52
2022/07/27 11:34:06;;;;;;;2.92;2.62;;;;;;;33.74;45.72;101127.52;1524929;94;21103;-51
2022/07/27 11:36:38;;;;;;;4.72;2.40;;;;;;;33.72;45.98;101129.02;1525518;93;21586;-49
2022/07/27 11:39:08;;;;;;;4.42;2.60;;;;;;;33.72;46.20;101124.15;1554230;92;21112;-51
2022/07/27 11:41:35;;;;;;;3.10;2.67;;;;;;;33.70;46.33;101118.90;1525470;93;21075;-51